ACA1353 KSTL-CYYZ
Flight info
| Callsign | ACA1353 |
|---|---|
| Flight time | N/A |
| Altitude | 39000 |
| Route | JHART7 VHP DCT FWA DCT CRL DCT QWERI NUBER6 |
| Aircraft | B78X/H-SDE1E2E3FGHIJ2J3J4J5M1RWXY/LB1D1 |
Departure
| Time | 2026-04-27 23:32 |
|---|---|
| Airport | St. Louis Lambert International Airport (KSTL) |
Arrival
| Time | N/A |
|---|---|
| Airport | Toronto Pearson International Airport (CYYZ) |
| Time | Latitude | Longitude | Altitude | Speed | Heading |
|---|---|---|---|---|---|
| 2026-04-27 23:22 | 38.74332 | -90.36387 | 558 ft | 0 kts | 24° |
| 2026-04-27 23:26 | 38.74334 | -90.36385 | 550 ft | 2 kts | 24° |
| 2026-04-27 23:26 | 38.74378 | -90.36364 | 549 ft | 13 kts | 20° |
| 2026-04-27 23:26 | 38.74424 | -90.36272 | 550 ft | 14 kts | 98° |
| 2026-04-27 23:27 | 38.74380 | -90.36151 | 564 ft | 16 kts | 122° |
| 2026-04-27 23:27 | 38.74320 | -90.36028 | 567 ft | 16 kts | 122° |
| 2026-04-27 23:27 | 38.74261 | -90.35907 | 567 ft | 16 kts | 122° |
| 2026-04-27 23:27 | 38.74254 | -90.35813 | 563 ft | 6 kts | 58° |
| 2026-04-27 23:28 | 38.74284 | -90.35770 | 567 ft | 8 kts | 46° |
| 2026-04-27 23:28 | 38.74335 | -90.35702 | 568 ft | 13 kts | 45° |
| 2026-04-27 23:28 | 38.74433 | -90.35641 | 565 ft | 20 kts | 2° |
| 2026-04-27 23:28 | 38.74548 | -90.35732 | 569 ft | 22 kts | 291° |
| 2026-04-27 23:29 | 38.74626 | -90.35909 | 567 ft | 24 kts | 303° |
| 2026-04-27 23:29 | 38.74716 | -90.36096 | 563 ft | 25 kts | 300° |
| 2026-04-27 23:29 | 38.74802 | -90.36294 | 560 ft | 27 kts | 298° |
| 2026-04-27 23:29 | 38.74914 | -90.36490 | 568 ft | 27 kts | 308° |
| 2026-04-27 23:30 | 38.75009 | -90.36683 | 569 ft | 23 kts | 302° |
| 2026-04-27 23:30 | 38.75088 | -90.36725 | 566 ft | 6 kts | 30° |
| 2026-04-27 23:30 | 38.75089 | -90.36724 | 566 ft | 0 kts | 32° |
| 2026-04-27 23:31 | 38.75112 | -90.36691 | 576 ft | 11 kts | 51° |
| 2026-04-27 23:31 | 38.75136 | -90.36554 | 582 ft | 25 kts | 103° |
| 2026-04-27 23:31 | 38.74991 | -90.36248 | 577 ft | 65 kts | 123° |
| 2026-04-27 23:31 | 38.74579 | -90.35420 | 574 ft | 151 kts | 122° |
| 2026-04-27 23:32 | 38.74051 | -90.34038 | 863 ft | 191 kts | 117° |
| 2026-04-27 23:32 | 38.73469 | -90.32470 | 1801 ft | 199 kts | 116° |
| 2026-04-27 23:32 | 38.73098 | -90.30701 | 2793 ft | 217 kts | 96° |
| 2026-04-27 23:32 | 38.73096 | -90.28735 | 3816 ft | 218 kts | 91° |
| 2026-04-27 23:33 | 38.73138 | -90.26886 | 4586 ft | 207 kts | 89° |
| 2026-04-27 23:33 | 38.73187 | -90.24867 | 4493 ft | 254 kts | 95° |
| 2026-04-27 23:33 | 38.73031 | -90.22751 | 5421 ft | 201 kts | 103° |
| 2026-04-27 23:33 | 38.72914 | -90.21120 | 5417 ft | 187 kts | 101° |